| time (UTC) | temp C | wind direction | speed KPH | gust KPH | rain 1hr cm | rain 24hr cm | rain mn cm | humidity % | barometer mb |
| 20260906191538 | 16 | 309 | 29.0 | 48.3 | 0.00 | 0.05 | 0.05 | 58 | 1023.2 |
| 20260906190557 | 16 | 300 | 30.6 | 46.7 | 0.00 | 0.05 | 0.05 | 59 | 1023.0 |
| 20260906185519 | 16 | 293 | 17.7 | 30.6 | 0.00 | 0.05 | 0.05 | 59 | 1023.1 |
| 20260906184540 | 16 | 308 | 19.3 | 37.0 | 0.00 | 0.05 | 0.05 | 57 | 1022.9 |
| 20260906183541 | 16 | 310 | 19.3 | 35.4 | 0.00 | 0.05 | 0.05 | 56 | 1022.8 |
| 20260906182518 | 17 | 312 | 25.7 | 51.5 | 0.00 | 0.05 | 0.05 | 55 | 1022.7 |
| 20260906181519 | 17 | 310 | 25.7 | 40.2 | 0.00 | 0.05 | 0.05 | 55 | 1022.5 |
| 20260906180521 | 17 | 290 | 20.9 | 38.6 | 0.00 | 0.05 | 0.05 | 55 | 1022.3 |
| 20260906175519 | 17 | 290 | 22.5 | 37.0 | 0.00 | 0.05 | 0.05 | 54 | 1022.3 |
| 20260906174517 | 17 | 286 | 25.7 | 41.8 | 0.00 | 0.05 | 0.05 | 53 | 1022.2 |
| 20260906173540 | 17 | 277 | 25.7 | 48.3 | 0.00 | 0.05 | 0.05 | 52 | 1021.9 |
| 20260906172522 | 18 | 295 | 27.4 | 37.0 | 0.00 | 0.05 | 0.05 | 51 | 1021.9 |
| 20260906171520 | 18 | 303 | 35.4 | 57.9 | 0.00 | 0.05 | 0.05 | 50 | 1021.6 |
| 20260906170518 | 18 | 293 | 32.2 | 45.1 | 0.00 | 0.15 | 0.05 | 50 | 1021.4 |
| 20260906165520 | 18 | 302 | 41.8 | 72.4 | 0.00 | 0.58 | 0.05 | 49 | 1021.1 |
| 20260906164522 | 19 | 304 | 49.9 | 90.1 | 0.00 | 0.58 | 0.05 | 48 | 1020.8 |
| 20260906163519 | 19 | 320 | 37.0 | 90.1 | 0.00 | 0.58 | 0.05 | 49 | 1020.7 |
| 20260906162520 | 20 | 306 | 45.1 | 80.5 | 0.00 | 0.58 | 0.05 | 48 | 1020.6 |
| 20260906161518 | 20 | 302 | 54.7 | 86.9 | 0.00 | 0.58 | 0.05 | 47 | 1020.4 |
| 20260906160522 | 20 | 295 | 49.9 | 70.8 | 0.00 | 0.58 | 0.05 | 46 | 1020.1 |
| 20260906155518 | 20 | 296 | 59.5 | 112.7 | 0.00 | 0.58 | 0.05 | 45 | 1020.0 |
| 20260906154521 | 21 | 301 | 53.1 | 83.7 | 0.00 | 0.58 | 0.05 | 47 | 1020.0 |
| 20260906153521 | 21 | 313 | 35.4 | 62.8 | 0.00 | 0.58 | 0.05 | 49 | 1019.9 |
| 20260906152521 | 20 | 304 | 48.3 | 77.2 | 0.00 | 0.58 | 0.05 | 48 | 1019.8 |
| 20260906151520 | 20 | 312 | 46.7 | 90.1 | 0.00 | 0.58 | 0.05 | 47 | 1019.8 |
| 20260906150522 | 20 | 301 | 54.7 | 85.3 | 0.00 | 0.58 | 0.05 | 47 | 1019.7 |
| 20260906145519 | 21 | 300 | 59.5 | 83.7 | 0.00 | 0.58 | 0.05 | 46 | 1019.6 |
| 20260906144523 | 20 | 310 | 46.7 | 86.9 | 0.00 | 0.58 | 0.05 | 47 | 1019.4 |
| 20260906143519 | 21 | 304 | 46.7 | 74.0 | 0.00 | 0.58 | 0.05 | 46 | 1019.3 |
| 20260906142521 | 21 | 301 | 64.4 | 106.2 | 0.00 | 0.58 | 0.05 | 45 | 1019.1 |
| 20260906141520 | 21 | 314 | 64.4 | 98.2 | 0.00 | 0.58 | 0.05 | 45 | 1019.0 |
| 20260906140520 | 21 | 326 | 56.3 | 80.5 | 0.00 | 0.58 | 0.05 | 46 | 1018.9 |
| 20260906135521 | 21 | 307 | 57.9 | 93.3 | 0.00 | 0.58 | 0.05 | 48 | 1018.8 |
| 20260906134522 | 21 | 306 | 61.2 | 101.4 | 0.00 | 0.58 | 0.05 | 46 | 1018.7 |
| 20260906133519 | 22 | 294 | 69.2 | 96.6 | 0.00 | 0.58 | 0.05 | 47 | 1018.7 |
| 20260906132537 | 22 | 314 | 51.5 | 67.6 | 0.00 | 0.58 | 0.05 | 47 | 1018.7 |
| 20260906131520 | 21 | 295 | 74.0 | 106.2 | 0.00 | 0.58 | 0.05 | 44 | 1018.6 |
| 20260906130518 | 21 | 307 | 62.8 | 106.2 | 0.00 | 0.58 | 0.05 | 45 | 1018.4 |
| 20260906125536 | 21 | 287 | 64.4 | 109.4 | 0.00 | 0.58 | 0.05 | 49 | 1018.5 |
| 20260906124517 | 21 | 304 | 64.4 | 93.3 | 0.00 | 0.58 | 0.05 | 49 | 1018.4 |
| 20260906123519 | 21 | 311 | 46.7 | 93.3 | 0.00 | 0.58 | 0.05 | 51 | 1018.3 |
| 20260906122520 | 20 | 298 | 43.5 | 61.2 | 0.00 | 0.58 | 0.05 | 58 | 1018.4 |
| 20260906121519 | 20 | 275 | 45.1 | 74.0 | 0.00 | 0.58 | 0.05 | 59 | 1018.5 |
| 20260906120520 | 19 | 269 | 38.6 | 49.9 | 0.00 | 0.58 | 0.05 | 63 | 1018.7 |
| 20260906115520 | 18 | 272 | 29.0 | 37.0 | 0.00 | 0.58 | 0.05 | 67 | 1018.9 |
| 20260906114521 | 18 | 276 | 38.6 | 48.3 | 0.03 | 0.58 | 0.05 | 66 | 1019.0 |
| 20260906113521 | 18 | 278 | 27.4 | 49.9 | 0.03 | 0.58 | 0.05 | 71 | 1018.9 |
| 20260906112522 | 16 | 263 | 20.9 | 30.6 | 0.03 | 0.58 | 0.05 | 76 | 1019.1 |
| 20260906111521 | 16 | 262 | 24.1 | 30.6 | 0.03 | 0.58 | 0.05 | 77 | 1019.4 |
| 20260906110537 | 16 | 266 | 46.7 | 57.9 | 0.03 | 0.58 | 0.05 | 76 | 1019.6 |
| 20260906105520 | 16 | 276 | 59.5 | 77.2 | 0.03 | 0.58 | 0.05 | 69 | 1019.6 |
| 20260906104516 | 18 | 283 | 96.6 | 151.3 | 0.00 | 0.56 | 0.03 | 57 | 1019.3 |
| 20260906103521 | 19 | 299 | 67.6 | 112.7 | 0.00 | 0.56 | 0.03 | 57 | 1018.9 |
| 20260906102519 | 20 | 306 | 49.9 | 66.0 | 0.00 | 0.56 | 0.03 | 57 | 1018.8 |
| 20260906101520 | 20 | 302 | 61.2 | 127.1 | 0.00 | 0.56 | 0.03 | 58 | 1018.8 |
| 20260906100541 | 20 | 299 | 59.5 | 80.5 | 0.03 | 0.56 | 0.03 | 59 | 1018.7 |
| 20260906095521 | 20 | 319 | 54.7 | 74.0 | 0.03 | 0.56 | 0.03 | 61 | 1018.7 |
| 20260906094523 | 18 | 330 | 38.6 | 72.4 | 0.03 | 0.56 | 0.03 | 65 | 1018.8 |
| 20260906093520 | 17 | 307 | 19.3 | 38.6 | 0.03 | 0.56 | 0.03 | 74 | 1018.7 |
| 20260906092521 | 17 | 284 | 25.7 | 45.1 | 0.03 | 0.56 | 0.03 | 75 | 1018.9 |
| 20260906091519 | 18 | 311 | 45.1 | 67.6 | 0.03 | 0.56 | 0.03 | 66 | 1019.0 |
| 20260906090521 | 18 | 309 | 37.0 | 80.5 | 0.00 | 0.53 | 0.00 | 63 | 1018.8 |
| 20260906085541 | 18 | 295 | 51.5 | 75.6 | 0.00 | 0.53 | 0.00 | 65 | 1018.7 |
| 20260906084521 | 18 | 294 | 54.7 | 77.2 | 0.00 | 0.53 | 0.00 | 65 | 1018.8 |
| 20260906083540 | 19 | 289 | 59.5 | 96.6 | 0.00 | 0.53 | 0.00 | 63 | 1018.8 |
| 20260906082518 | 20 | 299 | 38.6 | 72.4 | 0.00 | 0.53 | 0.00 | 64 | 1018.7 |
| 20260906081517 | 20 | 287 | 49.9 | 83.7 | 0.00 | 0.53 | 0.00 | 69 | 1018.6 |
| 20260906080521 | 19 | 300 | 43.5 | 74.0 | 0.00 | 0.53 | 0.00 | 71 | 1018.7 |
| 20260906075519 | 18 | 296 | 32.2 | 57.9 | 0.00 | 0.53 | 0.00 | 73 | 1018.8 |
| 20260906074522 | 18 | 296 | 30.6 | 43.5 | 0.00 | 0.53 | 0.00 | 75 | 1018.7 |
| 20260906073521 | 17 | 285 | 41.8 | 54.7 | 0.00 | 0.53 | 0.00 | 75 | 1018.7 |
| 20260906072521 | 17 | 291 | 32.2 | 59.5 | 0.00 | 0.53 | 0.00 | 74 | 1018.7 |
| 20260906071541 | 17 | 252 | 11.3 | 20.9 | 0.00 | 0.53 | 0.00 | 83 | 1018.8 |
| 20260906070521 | 16 | 239 | 17.7 | 27.4 | 0.00 | 0.53 | 0.00 | 84 | 1018.8 |
| 20260906065521 | 16 | 212 | 22.5 | 35.4 | 0.00 | 0.53 | 0.00 | 85 | 1018.9 |
| 20260906064519 | 16 | 196 | 22.5 | 33.8 | 0.00 | 0.53 | 0.00 | 87 | 1018.8 |
| 20260906063540 | 16 | 239 | 17.7 | 30.6 | 0.00 | 0.53 | 0.00 | 86 | 1018.8 |
| 20260906062520 | 16 | 207 | 29.0 | 41.8 | 0.00 | 0.53 | 0.00 | 85 | 1018.6 |
| 20260906061520 | 16 | 225 | 16.1 | 20.9 | 0.00 | 0.53 | 0.00 | 84 | 1018.1 |
| 20260906060521 | 16 | 285 | 11.3 | 17.7 | 0.00 | 0.53 | 0.00 | 83 | 1017.9 |
| 20260906055521 | 15 | 356 | 14.5 | 25.7 | 0.00 | 0.53 | 0.00 | 85 | 1017.9 |
| 20260906054522 | 15 | 340 | 17.7 | 27.4 | 0.00 | 0.53 | 0.00 | 86 | 1018.0 |
| 20260906053520 | 15 | 334 | 20.9 | 43.5 | 0.00 | 0.53 | 0.00 | 86 | 1018.3 |
| 20260906052518 | 15 | 313 | 30.6 | 54.7 | 0.00 | 0.53 | 0.00 | 85 | 1018.5 |
| 20260906051518 | 15 | 300 | 22.5 | 41.8 | 0.00 | 0.53 | 0.00 | 86 | 1018.2 |
| 20260906050521 | 15 | 282 | 27.4 | 41.8 | 0.00 | 0.53 | 0.00 | 89 | 1018.2 |
| 20260906045539 | 15 | 276 | 16.1 | 22.5 | 0.00 | 0.53 | 0.00 | 91 | 1017.9 |
| 20260906044537 | 14 | 292 | 17.7 | 33.8 | 0.00 | 0.53 | 0.00 | 92 | 1018.0 |
| 20260906043521 | 14 | 299 | 25.7 | 37.0 | 0.00 | 0.53 | 0.00 | 91 | 1018.1 |
| 20260906042523 | 15 | 320 | 22.5 | 33.8 | 0.00 | 0.53 | 0.00 | 90 | 1018.0 |
| 20260906041521 | 15 | 299 | 17.7 | 33.8 | 0.00 | 0.53 | 0.00 | 90 | 1017.6 |
| 20260906040521 | 14 | 239 | 16.1 | 27.4 | 0.00 | 0.53 | 0.00 | 91 | 1017.1 |
| 20260906035518 | 14 | 240 | 16.1 | 20.9 | 0.00 | 0.53 | 0.00 | 91 | 1017.0 |
| 20260906034521 | 14 | 177 | 9.7 | 14.5 | 0.00 | 0.53 | 0.00 | 91 | 1016.8 |
| 20260906033539 | 14 | 173 | 12.9 | 19.3 | 0.00 | 0.53 | 0.00 | 90 | 1016.8 |
| 20260906032521 | 14 | 187 | 8.0 | 12.9 | 0.00 | 0.53 | 0.00 | 90 | 1016.6 |
| 20260906031519 | 14 | 205 | 4.8 | 8.0 | 0.00 | 0.53 | 0.00 | 90 | 1016.6 |
| 20260906030522 | 14 | 256 | 11.3 | 19.3 | 0.00 | 0.53 | 0.00 | 90 | 1016.6 |
| 20260906025520 | 15 | 301 | 6.4 | 11.3 | 0.00 | 0.53 | 0.00 | 90 | 1016.5 |
| 20260906024525 | 15 | 294 | 8.0 | 12.9 | 0.00 | 0.53 | 0.00 | 90 | 1016.5 |
| 20260906023519 | 15 | 288 | 6.4 | 11.3 | 0.00 | 0.53 | 0.00 | 91 | 1016.4 |
| 20260906022517 | 15 | 278 | 11.3 | 22.5 | 0.00 | 0.53 | 0.00 | 91 | 1016.4 |
| 20260906021519 | 15 | 278 | 12.9 | 17.7 | 0.00 | 0.53 | 0.00 | 91 | 1016.5 |
| 20260906020521 | 15 | 227 | 12.9 | 27.4 | 0.00 | 0.53 | 0.00 | 91 | 1016.5 |
| 20260906015521 | 15 | 268 | 12.9 | 20.9 | 0.00 | 0.53 | 0.00 | 91 | 1016.5 |
| 20260906014522 | 15 | 273 | 22.5 | 32.2 | 0.00 | 0.53 | 0.00 | 92 | 1016.6 |
| 20260906013519 | 15 | 272 | 20.9 | 27.4 | 0.00 | 0.53 | 0.00 | 93 | 1016.6 |
| 20260906012521 | 15 | 276 | 16.1 | 22.5 | 0.00 | 0.53 | 0.00 | 92 | 1016.6 |
| 20260906011520 | 15 | 270 | 12.9 | 20.9 | 0.00 | 0.53 | 0.00 | 92 | 1016.5 |
| 20260906010519 | 15 | 274 | 12.9 | 17.7 | 0.00 | 0.53 | 0.00 | 92 | 1016.6 |
| 20260906005519 | 15 | 264 | 11.3 | 17.7 | 0.00 | 0.53 | 0.00 | 92 | 1016.4 |
| 20260906004521 | 15 | 237 | 14.5 | 24.1 | 0.00 | 0.53 | 0.00 | 91 | 1016.6 |
| 20260906003520 | 15 | 242 | 12.9 | 17.7 | 0.00 | 0.53 | 0.00 | 91 | 1016.7 |
| 20260906002520 | 15 | 266 | 19.3 | 32.2 | 0.00 | 0.53 | 0.00 | 92 | 1016.8 |
| 20260906001540 | 15 | 294 | 16.1 | 22.5 | 0.00 | 0.53 | 0.00 | 92 | 1016.8 |
| 20260906000523 | 15 | 274 | 9.7 | 14.5 | 0.00 | 0.53 | 0.00 | 91 | 1016.8 |
| 20260905235521 | 16 | 282 | 8.0 | 14.5 | 0.00 | 0.53 | 0.00 | 91 | 1016.9 |
| 20260905234519 | 16 | 261 | 6.4 | 12.9 | 0.00 | 0.53 | 0.00 | 90 | 1016.8 |
| 20260905233519 | 16 | 195 | 9.7 | 16.1 | 0.00 | 0.53 | 0.00 | 90 | 1016.7 |
| 20260905232520 | 16 | 235 | 11.3 | 17.7 | 0.00 | 0.53 | 0.00 | 90 | 1017.0 |
| 20260905231519 | 16 | 213 | 11.3 | 22.5 | 0.00 | 0.53 | 0.00 | 89 | 1017.1 |
| 20260905230521 | 16 | 229 | 11.3 | 20.9 | 0.00 | 0.53 | 0.00 | 89 | 1017.0 |
| 20260905225519 | 16 | 257 | 11.3 | 17.7 | 0.00 | 0.53 | 0.00 | 89 | 1017.1 |
| 20260905224539 | 16 | 254 | 22.5 | 32.2 | 0.00 | 0.53 | 0.00 | 89 | 1017.1 |
| 20260905223521 | 16 | 268 | 22.5 | 30.6 | 0.00 | 0.53 | 0.00 | 90 | 1017.1 |
| 20260905222521 | 16 | 265 | 22.5 | 41.8 | 0.00 | 0.53 | 0.00 | 90 | 1017.1 |
| 20260905221519 | 16 | 256 | 30.6 | 41.8 | 0.00 | 0.53 | 0.00 | 90 | 1017.0 |
| 20260905220517 | 16 | 294 | 30.6 | 45.1 | 0.00 | 0.53 | 0.00 | 91 | 1017.0 |
| 20260905215540 | 16 | 279 | 19.3 | 27.4 | 0.00 | 0.53 | 0.00 | 92 | 1016.9 |
| 20260905214521 | 16 | 285 | 19.3 | 30.6 | 0.00 | 0.53 | 0.00 | 92 | 1016.8 |
| 20260905213519 | 16 | 276 | 22.5 | 29.0 | 0.00 | 0.53 | 0.00 | 91 | 1016.7 |
| 20260905212601 | 16 | 273 | 25.7 | 30.6 | 0.00 | 0.53 | 0.00 | 92 | 1016.6 |
| 20260905211559 | 16 | 276 | 25.7 | 33.8 | 0.00 | 0.53 | 0.00 | 92 | 1016.4 |
| 20260905210601 | 16 | 269 | 25.7 | 33.8 | 0.00 | 0.53 | 0.00 | 93 | 1016.5 |
| 20260905205519 | 16 | 293 | 22.5 | 30.6 | 0.00 | 0.53 | 0.53 | 93 | 1016.3 |
| 20260905204521 | 16 | 279 | 22.5 | 29.0 | 0.00 | 0.53 | 0.53 | 93 | 1016.3 |
| 20260905203521 | 16 | 283 | 20.9 | 25.7 | 0.00 | 0.53 | 0.53 | 93 | 1016.2 |
| 20260905202522 | 16 | 274 | 14.5 | 17.7 | 0.00 | 0.53 | 0.53 | 93 | 1016.1 |
| 20260905201520 | 16 | 279 | 14.5 | 17.7 | 0.00 | 0.53 | 0.53 | 93 | 1015.9 |
| 20260905200522 | 16 | 270 | 17.7 | 24.1 | 0.00 | 0.53 | 0.53 | 92 | 1015.9 |
| 20260905195519 | 16 | 276 | 9.7 | 14.5 | 0.00 | 0.53 | 0.53 | 92 | 1015.9 |
| 20260905194521 | 16 | 277 | 19.3 | 27.4 | 0.00 | 0.53 | 0.53 | 92 | 1015.9 |
| 20260905193519 | 16 | 305 | 14.5 | 20.9 | 0.00 | 0.53 | 0.53 | 92 | 1015.8 |
| 20260905192521 | 16 | 293 | 19.3 | 33.8 | 0.00 | 0.53 | 0.53 | 91 | 1015.9 |